createdAt,value
2023-04-20T00:02:03.632Z,4.63
2023-04-20T00:07:07.542Z,3.93
2023-04-20T00:12:11.160Z,3.89
2023-04-20T00:17:14.186Z,4.13
2023-04-20T00:22:17.363Z,3.87
2023-04-20T00:27:21.467Z,4.19
2023-04-20T00:32:24.755Z,3.98
2023-04-20T00:37:28.874Z,4.12
2023-04-20T00:42:32.589Z,3.76
2023-04-20T00:47:36.010Z,3.44
2023-04-20T00:52:40.711Z,3.42
2023-04-20T00:57:45.226Z,3.51
2023-04-20T01:02:48.524Z,2.79
2023-04-20T01:07:52.697Z,3.06
2023-04-20T01:12:57.192Z,3.01
2023-04-20T01:18:01.174Z,3.21
2023-04-20T01:23:04.858Z,2.61
2023-04-20T01:28:09.622Z,2.84
2023-04-20T01:33:13.669Z,2.89
2023-04-20T01:38:22.394Z,3.36
2023-04-20T01:43:26.643Z,3.29
2023-04-20T01:48:29.947Z,2.84
2023-04-20T01:53:33.506Z,2.62
2023-04-20T01:58:37.462Z,2.39
2023-04-20T02:03:40.944Z,2.51
2023-04-20T02:08:47.388Z,2.55
2023-04-20T02:13:51.467Z,2.56
2023-04-20T02:18:54.988Z,2.28
2023-04-20T02:23:58.180Z,2.56
2023-04-20T02:29:03.460Z,2.36
2023-04-20T02:34:09.689Z,3.22
2023-04-20T02:39:12.956Z,2.69
2023-04-20T02:44:16.018Z,2.50
2023-04-20T02:49:19.693Z,2.92
2023-04-20T02:54:23.796Z,2.64
2023-04-20T02:59:28.109Z,2.59
2023-04-20T03:04:46.365Z,2.51
2023-04-20T03:09:56.341Z,2.83
2023-04-20T03:15:22.974Z,3.48
2023-04-20T03:20:36.958Z,3.19
2023-04-20T03:25:40.510Z,2.89
2023-04-20T03:30:50.059Z,3.22
2023-04-20T03:35:53.630Z,3.42
2023-04-20T03:40:57.839Z,3.23
2023-04-20T03:46:01.544Z,3.73
2023-04-20T03:51:05.250Z,3.70
2023-04-20T03:56:09.076Z,2.95
2023-04-20T04:01:13.555Z,2.90
2023-04-20T04:06:21.700Z,2.90
2023-04-20T04:11:26.378Z,2.80
2023-04-20T04:16:29.661Z,3.13
2023-04-20T04:21:34.545Z,2.92
2023-04-20T04:26:40.792Z,3.24
2023-04-20T04:31:44.611Z,3.00
2023-04-20T04:36:52.963Z,3.35
2023-04-20T04:42:04.853Z,3.56
2023-04-20T04:47:18.182Z,3.37
2023-04-20T04:52:22.310Z,3.91
2023-04-20T04:57:26.829Z,4.40
2023-04-20T05:02:30.837Z,4.88
2023-04-20T05:07:34.924Z,5.09
2023-04-20T05:12:39.076Z,5.48
2023-04-20T05:17:42.981Z,5.52
2023-04-20T05:22:46.096Z,5.85
2023-04-20T05:27:52.252Z,6.56
2023-04-20T05:32:56.045Z,6.90
2023-04-20T05:38:03.063Z,7.45
2023-04-20T05:43:07.328Z,8.58
2023-04-20T05:48:11.229Z,9.23
2023-04-20T05:53:15.212Z,9.69
2023-04-20T05:58:20.023Z,10.52
2023-04-20T06:03:23.666Z,11.03
2023-04-20T06:08:27.822Z,10.82
2023-04-20T06:13:31.319Z,11.16
2023-04-20T06:18:37.804Z,11.90
2023-04-20T06:23:43.743Z,14.80
2023-04-20T06:28:48.578Z,15.81
2023-04-20T06:33:52.570Z,16.76
2023-04-20T06:38:56.667Z,17.39
2023-04-20T06:44:00.435Z,18.87
2023-04-20T06:49:05.163Z,18.60
2023-04-20T06:54:08.509Z,19.23
2023-04-20T06:59:12.452Z,18.57
2023-04-20T07:04:16.235Z,17.89
2023-04-20T07:09:20.205Z,17.44
2023-04-20T07:14:23.870Z,16.60
2023-04-20T07:19:26.965Z,15.44
2023-04-20T07:24:30.936Z,15.50
2023-04-20T07:29:34.264Z,15.08
2023-04-20T07:34:37.807Z,14.86
2023-04-20T07:39:41.474Z,16.16
2023-04-20T07:44:44.944Z,17.04
2023-04-20T07:49:48.632Z,17.10
2023-04-20T07:54:58.214Z,17.24
2023-04-20T08:00:01.331Z,16.65
2023-04-20T08:05:16.385Z,16.82
2023-04-20T08:10:20.201Z,17.81
2023-04-20T08:15:23.935Z,17.07
2023-04-20T08:20:27.314Z,18.49
2023-04-20T08:25:32.771Z,18.49
2023-04-20T08:30:36.322Z,17.89
2023-04-20T08:35:41.054Z,17.98
2023-04-20T08:40:44.840Z,18.41
2023-04-20T08:45:51.300Z,17.08
2023-04-20T08:50:55.779Z,17.80
2023-04-20T08:55:59.783Z,17.80
2023-04-20T09:01:03.645Z,17.33
2023-04-20T09:06:15.489Z,17.94
2023-04-20T09:11:27.356Z,16.79
2023-04-20T09:16:31.902Z,16.51
2023-04-20T09:21:36.141Z,16.96
2023-04-20T09:26:39.726Z,16.52
2023-04-20T09:31:43.255Z,17.00
2023-04-20T09:36:51.795Z,17.62
2023-04-20T09:42:04.494Z,18.03
2023-04-20T09:47:09.080Z,17.55
2023-04-20T09:52:19.430Z,17.05
2023-04-20T09:57:23.925Z,17.08
2023-04-20T10:02:27.597Z,18.01
2023-04-20T10:07:33.412Z,18.07
2023-04-20T10:12:48.856Z,17.41
2023-04-20T10:17:53.999Z,17.59
2023-04-20T10:23:14.616Z,18.21
2023-04-20T10:28:17.948Z,18.32
2023-04-20T10:33:23.133Z,19.35
2023-04-20T10:38:36.367Z,18.68
2023-04-20T10:43:43.709Z,19.01
2023-04-20T10:48:58.825Z,19.15
2023-04-20T10:54:09.206Z,18.56
2023-04-20T10:59:14.765Z,17.67
2023-04-20T11:04:19.364Z,18.39
2023-04-20T11:09:26.941Z,18.88
2023-04-20T11:14:34.350Z,18.89
2023-04-20T11:19:38.511Z,18.51
2023-04-20T11:24:43.114Z,18.33
2023-04-20T11:29:56.020Z,19.02
2023-04-20T11:35:06.479Z,17.60
2023-04-20T11:40:12.256Z,17.26
2023-04-20T11:45:16.417Z,16.61
2023-04-20T11:50:20.073Z,16.26
2023-04-20T11:55:23.833Z,15.71
2023-04-20T12:00:27.903Z,15.90
2023-04-20T12:05:31.511Z,15.95
2023-04-20T12:10:35.154Z,16.29
2023-04-20T12:15:39.550Z,17.15
2023-04-20T12:20:42.877Z,18.41
2023-04-20T12:25:46.911Z,17.64
2023-04-20T12:30:50.668Z,17.44
2023-04-20T12:35:54.590Z,16.64
2023-04-20T12:41:00.027Z,16.18
2023-04-20T12:46:03.457Z,15.80
2023-04-20T12:51:06.734Z,15.80
2023-04-20T12:56:09.846Z,16.05
2023-04-20T13:01:12.971Z,16.13
2023-04-20T13:06:16.789Z,16.96
2023-04-20T13:11:20.380Z,17.37
2023-04-20T13:16:24.891Z,17.06
2023-04-20T13:21:28.351Z,16.05
2023-04-20T13:26:32.489Z,16.01
2023-04-20T13:31:37.239Z,16.19
2023-04-20T13:36:41.500Z,16.25
2023-04-20T13:41:45.225Z,16.97
2023-04-20T13:46:49.376Z,17.20
2023-04-20T13:51:52.537Z,16.79
2023-04-20T13:56:56.630Z,16.51
2023-04-20T14:02:00.222Z,17.91
2023-04-20T14:07:03.866Z,17.86
2023-04-20T14:12:07.780Z,17.35
2023-04-20T14:17:11.956Z,16.89
2023-04-20T14:22:15.324Z,16.87
2023-04-20T14:27:19.532Z,17.64
2023-04-20T14:32:22.900Z,18.17
2023-04-20T14:37:27.623Z,17.06
2023-04-20T14:42:31.033Z,16.76
2023-04-20T14:47:34.157Z,16.23
2023-04-20T14:52:37.820Z,15.80
2023-04-20T14:57:41.557Z,15.66
2023-04-20T15:02:45.179Z,15.25
2023-04-20T15:07:50.939Z,14.99
2023-04-20T15:12:54.047Z,14.64
2023-04-20T15:17:58.136Z,14.22
2023-04-20T15:23:01.368Z,14.00
2023-04-20T15:28:06.768Z,13.99
2023-04-20T15:33:11.729Z,13.68
2023-04-20T15:38:15.113Z,13.65
2023-04-20T15:43:18.570Z,13.26
2023-04-20T15:48:22.272Z,12.98
2023-04-20T15:53:25.881Z,12.66
2023-04-20T15:58:30.052Z,12.73
2023-04-20T16:03:33.795Z,13.04
2023-04-20T16:08:38.167Z,12.70
2023-04-20T16:13:41.570Z,12.43
2023-04-20T16:18:45.023Z,11.96
2023-04-20T16:23:53.901Z,12.37
2023-04-20T16:28:57.967Z,12.27
2023-04-20T16:34:01.991Z,11.87
2023-04-20T16:39:06.827Z,11.47
2023-04-20T16:44:13.698Z,11.68
2023-04-20T16:49:16.825Z,11.12
2023-04-20T16:54:21.823Z,11.37
2023-04-20T16:59:25.843Z,10.95
2023-04-20T17:04:31.539Z,10.52
2023-04-20T17:09:34.690Z,10.09
2023-04-20T17:14:39.250Z,9.98
2023-04-20T17:19:42.867Z,9.90
2023-04-20T17:24:52.118Z,9.78
2023-04-20T17:29:56.233Z,9.79
2023-04-20T17:35:00.176Z,9.97
2023-04-20T17:40:05.374Z,9.51
2023-04-20T17:45:09.865Z,9.23
2023-04-20T17:50:13.717Z,9.11
2023-04-20T17:55:17.863Z,9.06
2023-04-20T18:00:21.705Z,8.86
2023-04-20T18:05:25.191Z,8.66
2023-04-20T18:10:28.981Z,8.74
2023-04-20T18:15:32.553Z,8.97
2023-04-20T18:20:36.247Z,8.45
2023-04-20T18:25:42.947Z,8.18
2023-04-20T18:30:46.860Z,8.61
2023-04-20T18:35:50.359Z,8.55
2023-04-20T18:40:54.444Z,8.26
2023-04-20T18:45:58.795Z,8.38
2023-04-20T18:51:02.132Z,8.21
2023-04-20T18:56:05.904Z,8.10
2023-04-20T19:01:09.982Z,7.81
2023-04-20T19:06:13.796Z,7.81
2023-04-20T19:11:17.654Z,7.75
2023-04-20T19:16:21.720Z,8.02
2023-04-20T19:21:25.528Z,8.08
2023-04-20T19:26:29.071Z,7.57
2023-04-20T19:31:38.102Z,7.27
2023-04-20T19:36:42.417Z,7.77
2023-04-20T19:41:46.226Z,7.29
2023-04-20T19:46:50.223Z,7.23
2023-04-20T19:51:53.881Z,7.51
2023-04-20T19:56:57.969Z,7.45
2023-04-20T20:02:01.365Z,7.51
2023-04-20T20:07:05.313Z,7.34
2023-04-20T20:12:10.725Z,7.12
2023-04-20T20:17:14.685Z,7.23
2023-04-20T20:22:18.200Z,7.34
2023-04-20T20:27:21.977Z,7.11
2023-04-20T20:32:25.697Z,7.04
2023-04-20T20:37:34.962Z,7.17
2023-04-20T20:42:40.312Z,7.09
2023-04-20T20:47:45.259Z,6.99
2023-04-20T20:52:50.224Z,7.75
2023-04-20T20:57:53.523Z,7.01
2023-04-20T21:02:57.466Z,7.51
2023-04-20T21:08:01.208Z,7.25
2023-04-20T21:13:06.231Z,7.19
2023-04-20T21:18:10.356Z,7.56
2023-04-20T21:23:13.540Z,7.33
2023-04-20T21:28:16.688Z,7.42
2023-04-20T21:33:20.398Z,7.18
2023-04-20T21:38:24.308Z,7.49
2023-04-20T21:43:27.397Z,7.25
2023-04-20T21:48:30.993Z,7.64
2023-04-20T21:53:34.462Z,7.60
2023-04-20T21:58:38.029Z,7.46
2023-04-20T22:03:41.753Z,7.51
2023-04-20T22:08:45.766Z,7.61
2023-04-20T22:13:49.550Z,7.96
2023-04-20T22:18:53.455Z,7.82
2023-04-20T22:23:57.911Z,7.32
2023-04-20T22:29:01.433Z,7.74
2023-04-20T22:34:04.843Z,7.28
2023-04-20T22:39:09.159Z,7.64
2023-04-20T22:44:13.310Z,7.58
2023-04-20T22:49:17.599Z,7.64
2023-04-20T22:54:21.353Z,7.49
2023-04-20T22:59:25.612Z,7.16
2023-04-20T23:04:30.051Z,6.86
2023-04-20T23:09:34.274Z,6.84
2023-04-20T23:14:44.330Z,6.83
2023-04-20T23:19:47.726Z,6.32
2023-04-20T23:24:51.770Z,6.37
2023-04-20T23:29:55.353Z,6.05
2023-04-20T23:34:58.914Z,6.28
2023-04-20T23:40:02.824Z,6.04
2023-04-20T23:45:07.191Z,6.69
2023-04-20T23:50:10.642Z,6.38
2023-04-20T23:55:14.362Z,6.26
